Eastern Cape — VRLD8 — position and weather

sailwx.info

Track history (hours):
 
Tides and Currents Weather Stations Pressure Air Temp Water Temp Dewpoint Dewpoint Depression Visibility Wind Speed Wind Dir Waves Ship Positions

Eastern Cape

Last reported at 2018-May-15 14:18 UTC. Time now 2018-May-23 09:48 UTC.
Position N 27°54' W 082°25'.

Length 170 m; draft 5.4 m.

Type: Ship. MMSI: 477334100.

Date/timePositionNaut miles runAvg speedWind from/ knotsBaromVisibWave heightAir tempDewpointWater temp
2018-May-15 14:18N 27°54' W 082°25'0 0.0
2018-May-15 14:00N 27°54' W 082°25'0 0.0
2018-May-15 13:30N 27°54' W 082°25'0 0.0
2018-May-15 13:00N 27°54' W 082°25'0 0.0
2018-May-15 12:30N 27°54' W 082°25'0 0.0
2018-May-15 12:00N 27°54' W 082°25'0 0.0
2018-May-15 11:30N 27°54' W 082°25'0 0.0
2018-May-15 11:00N 27°54' W 082°25'0 0.0
2018-May-15 10:30N 27°54' W 082°25'0 0.0
2018-May-15 10:00N 27°54' W 082°25'0 0.0
2018-May-15 09:30N 27°54' W 082°25'0 0.0
2018-May-15 09:00N 27°54' W 082°25'0 0.0
2018-May-15 08:30N 27°54' W 082°25'0 0.0
2018-May-15 08:00N 27°54' W 082°25'0 0.0
2018-May-15 07:30N 27°54' W 082°25'0 0.0
2018-May-15 07:00N 27°54' W 082°25'0 0.0
2018-May-15 06:30N 27°54' W 082°25'0 0.0
2018-May-15 06:00N 27°54' W 082°25'0 0.0
2018-May-15 05:30N 27°54' W 082°25'0 0.0
2018-May-15 05:00N 27°54' W 082°25'0 0.0
2018-May-15 04:30N 27°54' W 082°25'0 0.0
2018-May-15 04:00N 27°54' W 082°25'0 0.0
2018-May-15 03:30N 27°54' W 082°25'0 0.0
2018-May-15 03:00N 27°54' W 082°25'0 0.0
2018-May-15 02:30N 27°54' W 082°25'0 0.0
2018-May-15 02:00N 27°54' W 082°25'0 0.1
2018-May-15 01:30N 27°54' W 082°25'1 1.4
2018-May-15 01:01N 27°54' W 082°26'5 9.4
2018-May-15 00:30N 27°49' W 082°27'510.6
2018-May-15 00:00N 27°46' W 082°31'510.9
2018-May-14 23:31N 27°41' W 082°34'611.1
2018-May-14 23:01N 27°38' W 082°39'5 8.6
2018-May-14 22:29N 27°36' W 082°44'  
2018-May-12 15:00N 27°38' W 082°57'0 0.1
2018-May-12 14:30N 27°38' W 082°57'0 0.0
2018-May-12 14:00N 27°38' W 082°58'0 0.0
2018-May-12 13:30N 27°38' W 082°58'0 0.0
2018-May-12 13:00N 27°38' W 082°57'0 0.1
2018-May-12 12:30N 27°38' W 082°57'0 0.0
2018-May-12 10:48N 27°38' W 082°57'0 0.0
2018-May-12 10:15N 27°38' W 082°57'0 0.0
2018-May-12 09:06N 27°38' W 082°57'0 0.0
2018-May-11 13:12N 27°38' W 082°57'0 0.0
2018-May-11 13:00N 27°38' W 082°57'0 0.0
2018-May-11 12:27N 27°38' W 082°57'0 0.0
2018-May-11 11:54N 27°38' W 082°57'0 0.0
2018-May-11 11:27N 27°38' W 082°57'0 0.1
2018-May-11 10:54N 27°38' W 082°57'0 0.0
2018-May-11 10:24N 27°38' W 082°57'0 0.0
2018-May-11 10:00N 27°38' W 082°57'0 0.0
2018-May-11 09:27N 27°38' W 082°57'0 0.0
2018-May-11 08:33N 27°38' W 082°57'0 0.0
2018-May-11 08:30N 27°38' W 082°57'0 0.0
2018-May-11 07:54N 27°38' W 082°57'0 0.0
2018-May-10 13:33N 27°38' W 082°57'0 0.0
2018-May-10 10:36N 27°38' W 082°57'0 0.0
2018-May-10 10:12N 27°38' W 082°57'0 0.0
2018-May-10 09:54N 27°38' W 082°57'0 0.0
2018-May-10 09:30N 27°38' W 082°57'9 0.9
2018-May-09 23:52N 27°36' W 083°07'411.8
2018-May-09 23:30N 27°35' W 083°12'612.4
2018-May-09 23:00N 27°35' W 083°19'812.5
2018-May-09 22:22N 27°35' W 083°28'512.4
2018-May-09 22:00N 27°35' W 083°33'612.3
2018-May-09 21:29N 27°35' W 083°40'  
Track history (hours):
 
Tides and Currents Weather Stations Pressure Air Temp Water Temp Dewpoint Dewpoint Depression Visibility Wind Speed Wind Dir Waves Ship Positions

Eastern Cape

Last reported at 2018-May-15 14:18 UTC. Time now 2018-May-23 09:48 UTC.
Position N 27°54' W 082°25'.

Length 170 m; draft 5.4 m.

Type: Ship. MMSI: 477334100.

Date/timePositionNaut miles runAvg speedWind from/ knotsBaromVisibWave heightAir tempDewpointWater temp
2018-May-15 14:18N 27°54' W 082°25'0 0.0
2018-May-15 14:00N 27°54' W 082°25'0 0.0
2018-May-15 13:30N 27°54' W 082°25'0 0.0
2018-May-15 13:00N 27°54' W 082°25'0 0.0
2018-May-15 12:30N 27°54' W 082°25'0 0.0
2018-May-15 12:00N 27°54' W 082°25'0 0.0
2018-May-15 11:30N 27°54' W 082°25'0 0.0
2018-May-15 11:00N 27°54' W 082°25'0 0.0
2018-May-15 10:30N 27°54' W 082°25'0 0.0
2018-May-15 10:00N 27°54' W 082°25'0 0.0
2018-May-15 09:30N 27°54' W 082°25'0 0.0
2018-May-15 09:00N 27°54' W 082°25'0 0.0
2018-May-15 08:30N 27°54' W 082°25'0 0.0
2018-May-15 08:00N 27°54' W 082°25'0 0.0
2018-May-15 07:30N 27°54' W 082°25'0 0.0
2018-May-15 07:00N 27°54' W 082°25'0 0.0
2018-May-15 06:30N 27°54' W 082°25'0 0.0
2018-May-15 06:00N 27°54' W 082°25'0 0.0
2018-May-15 05:30N 27°54' W 082°25'0 0.0
2018-May-15 05:00N 27°54' W 082°25'0 0.0
2018-May-15 04:30N 27°54' W 082°25'0 0.0
2018-May-15 04:00N 27°54' W 082°25'0 0.0
2018-May-15 03:30N 27°54' W 082°25'0 0.0
2018-May-15 03:00N 27°54' W 082°25'0 0.0
2018-May-15 02:30N 27°54' W 082°25'0 0.0
2018-May-15 02:00N 27°54' W 082°25'0 0.1
2018-May-15 01:30N 27°54' W 082°25'1 1.4
2018-May-15 01:01N 27°54' W 082°26'5 9.4
2018-May-15 00:30N 27°49' W 082°27'510.6
2018-May-15 00:00N 27°46' W 082°31'510.9
2018-May-14 23:31N 27°41' W 082°34'611.1
2018-May-14 23:01N 27°38' W 082°39'5 8.6
2018-May-14 22:29N 27°36' W 082°44'  
2018-May-12 15:00N 27°38' W 082°57'0 0.1
2018-May-12 14:30N 27°38' W 082°57'0 0.0
2018-May-12 14:00N 27°38' W 082°58'0 0.0
2018-May-12 13:30N 27°38' W 082°58'0 0.0
2018-May-12 13:00N 27°38' W 082°57'0 0.1
2018-May-12 12:30N 27°38' W 082°57'0 0.0
2018-May-12 10:48N 27°38' W 082°57'0 0.0
2018-May-12 10:15N 27°38' W 082°57'0 0.0
2018-May-12 09:06N 27°38' W 082°57'0 0.0
2018-May-11 13:12N 27°38' W 082°57'0 0.0
2018-May-11 13:00N 27°38' W 082°57'0 0.0
2018-May-11 12:27N 27°38' W 082°57'0 0.0
2018-May-11 11:54N 27°38' W 082°57'0 0.0
2018-May-11 11:27N 27°38' W 082°57'0 0.1
2018-May-11 10:54N 27°38' W 082°57'0 0.0
2018-May-11 10:24N 27°38' W 082°57'0 0.0
2018-May-11 10:00N 27°38' W 082°57'0 0.0
2018-May-11 09:27N 27°38' W 082°57'0 0.0
2018-May-11 08:33N 27°38' W 082°57'0 0.0
2018-May-11 08:30N 27°38' W 082°57'0 0.0
2018-May-11 07:54N 27°38' W 082°57'0 0.0
2018-May-10 13:33N 27°38' W 082°57'0 0.0
2018-May-10 10:36N 27°38' W 082°57'0 0.0
2018-May-10 10:12N 27°38' W 082°57'0 0.0
2018-May-10 09:54N 27°38' W 082°57'0 0.0
2018-May-10 09:30N 27°38' W 082°57'9 0.9
2018-May-09 23:52N 27°36' W 083°07'411.8
2018-May-09 23:30N 27°35' W 083°12'612.4
2018-May-09 23:00N 27°35' W 083°19'812.5
2018-May-09 22:22N 27°35' W 083°28'512.4
2018-May-09 22:00N 27°35' W 083°33'612.3
2018-May-09 21:29N 27°35' W 083°40'  

Dump ship's entire track history